Time;durP1;ratioP1;P1;durP2;ratioP2;P2;SDS_P1;SDS_P2;PMS_P1;PMS_P2;Temp;Humidity;BMP_temperature;BMP_pressure;BME280_temperature;BME280_humidity;BME280_pressure;Samples;Min_cycle;Max_cycle;Signal;HPM_P1;HPM_P2
2022/11/27 00:00:07;;;;;;;476.30;294.85;;;7.00;99.90;;;;;;6069911;23;20021;-85
2022/11/27 00:02:39;;;;;;;494.60;301.08;;;7.10;99.90;;;;;;6060771;23;20051;-83
2022/11/27 00:05:09;;;;;;;481.13;303.27;;;7.10;99.90;;;;;;6070911;23;20015;-84
2022/11/27 00:07:37;;;;;;;476.42;302.75;;;7.10;99.90;;;;;;6038582;23;20344;-83
2022/11/27 00:10:05;;;;;;;474.30;291.83;;;7.10;99.90;;;;;;6075870;23;20023;-83
2022/11/27 00:12:33;;;;;;;450.98;278.88;;;7.00;99.90;;;;;;6071462;23;20019;-83
2022/11/27 00:15:00;;;;;;;451.17;280.73;;;7.00;99.90;;;;;;6070091;23;20038;-84
2022/11/27 00:17:27;;;;;;;468.33;284.52;;;7.10;99.90;;;;;;6070203;23;20026;-83
2022/11/27 00:19:54;;;;;;;462.48;282.35;;;7.10;99.90;;;;;;6073209;23;20069;-84
2022/11/27 00:22:25;;;;;;;461.45;279.63;;;7.10;99.90;;;;;;6035920;23;20023;-84
2022/11/27 00:24:52;;;;;;;447.63;277.73;;;7.10;99.90;;;;;;6073755;23;20034;-84
2022/11/27 00:27:20;;;;;;;420.95;265.40;;;7.20;99.90;;;;;;6074455;23;20030;-82
2022/11/27 00:29:47;;;;;;;395.80;253.77;;;7.20;99.90;;;;;;6075092;23;20034;-83
2022/11/27 00:32:14;;;;;;;408.23;252.85;;;7.30;99.90;;;;;;6071275;23;20018;-83
2022/11/27 00:34:41;;;;;;;408.60;254.23;;;7.30;99.90;;;;;;6080215;23;20019;-82
2022/11/27 00:37:09;;;;;;;405.65;253.35;;;7.40;99.90;;;;;;6093188;23;20014;-81
2022/11/27 00:39:39;;;;;;;388.90;247.85;;;7.40;99.90;;;;;;6092132;23;20011;-80
2022/11/27 00:42:06;;;;;;;398.17;241.85;;;7.40;99.90;;;;;;6060779;23;20027;-84
2022/11/27 00:44:34;;;;;;;389.02;242.65;;;7.40;99.90;;;;;;6071699;23;20515;-85
2022/11/27 00:47:01;;;;;;;374.50;235.52;;;7.40;99.90;;;;;;6070749;23;20019;-84
2022/11/27 00:49:28;;;;;;;391.40;247.23;;;7.30;99.90;;;;;;6035631;23;20383;-83
2022/11/27 00:51:56;;;;;;;393.02;249.95;;;7.30;99.90;;;;;;6071129;23;20019;-84
2022/11/27 00:54:24;;;;;;;416.33;256.05;;;7.20;99.90;;;;;;6072882;23;20023;-83
2022/11/27 00:56:52;;;;;;;398.33;251.98;;;7.10;99.90;;;;;;6071949;23;20023;-84
2022/11/27 00:59:20;;;;;;;398.48;252.32;;;7.10;99.90;;;;;;6071749;23;20023;-84
2022/11/27 01:01:47;;;;;;;387.95;244.18;;;7.10;99.90;;;;;;6070941;23;20451;-83
2022/11/27 01:04:16;;;;;;;377.63;238.98;;;7.10;99.90;;;;;;6073278;23;20030;-82
2022/11/27 01:06:44;;;;;;;379.38;236.77;;;7.10;99.90;;;;;;6072093;23;20018;-83
2022/11/27 01:09:13;;;;;;;386.98;244.75;;;7.00;99.90;;;;;;6035928;23;20051;-83
2022/11/27 01:11:41;;;;;;;393.48;239.85;;;7.00;99.90;;;;;;6071997;23;20098;-84
2022/11/27 01:14:12;;;;;;;370.15;233.23;;;6.90;99.90;;;;;;6070937;23;20022;-83
2022/11/27 01:16:40;;;;;;;447.50;278.65;;;7.00;99.90;;;;;;6070985;23;20050;-83
2022/11/27 01:19:07;;;;;;;449.08;283.15;;;7.00;99.90;;;;;;6071444;23;20631;-83
2022/11/27 01:21:35;;;;;;;499.92;313.58;;;7.00;99.90;;;;;;6035004;23;20015;-84
2022/11/27 01:24:04;;;;;;;499.80;316.73;;;7.00;99.90;;;;;;6070373;23;20389;-83
2022/11/27 01:26:31;;;;;;;493.92;307.63;;;6.90;99.90;;;;;;6070837;23;20019;-84
2022/11/27 01:29:00;;;;;;;486.20;304.58;;;6.90;99.90;;;;;;6070646;23;20086;-84
2022/11/27 01:31:32;;;;;;;455.45;288.85;;;6.90;99.90;;;;;;6070852;23;20026;-83
2022/11/27 01:34:01;;;;;;;443.63;274.30;;;6.80;99.90;;;;;;6037445;23;20031;-84
2022/11/27 01:36:29;;;;;;;434.60;268.50;;;6.80;99.90;;;;;;6070937;23;20018;-84
2022/11/27 01:38:57;;;;;;;413.13;260.10;;;6.80;99.90;;;;;;6070468;23;20352;-85
2022/11/27 01:41:27;;;;;;;400.83;248.45;;;6.80;99.90;;;;;;6068955;23;20029;-83
2022/11/27 01:43:58;;;;;;;375.05;239.70;;;6.90;99.90;;;;;;6070544;23;20066;-83
2022/11/27 01:46:35;;;;;;;385.38;243.93;;;6.80;99.90;;;;;;6035790;23;20015;-85
2022/11/27 01:49:19;;;;;;;363.33;230.80;;;6.80;99.90;;;;;;6070743;23;20448;-85
2022/11/27 01:51:51;;;;;;;371.85;236.65;;;6.70;99.90;;;;;;6069930;23;20462;-84
2022/11/27 01:54:20;;;;;;;371.00;235.75;;;6.80;99.90;;;;;;6070841;23;20015;-83
2022/11/27 01:56:51;;;;;;;370.05;235.43;;;6.80;99.90;;;;;;6036166;23;20023;-84
2022/11/27 01:59:19;;;;;;;353.98;225.00;;;6.90;99.90;;;;;;6071320;23;20019;-84
2022/11/27 02:01:48;;;;;;;357.77;226.65;;;6.90;99.90;;;;;;6070712;23;20448;-83
2022/11/27 02:04:18;;;;;;;367.67;228.15;;;6.90;99.90;;;;;;6071349;23;20015;-84
2022/11/27 02:06:46;;;;;;;372.55;232.10;;;6.80;99.90;;;;;;6071262;23;20015;-84
2022/11/27 02:09:14;;;;;;;382.77;241.90;;;6.80;99.90;;;;;;6070276;23;20026;-83
2022/11/27 02:11:55;;;;;;;374.40;238.48;;;6.80;99.90;;;;;;6069605;23;20015;-84
2022/11/27 02:14:32;;;;;;;349.00;221.18;;;6.70;99.90;;;;;;6070146;23;20019;-84
2022/11/27 02:17:07;;;;;;;359.73;226.90;;;6.70;99.90;;;;;;6035618;23;20026;-84
2022/11/27 02:19:52;;;;;;;372.88;235.20;;;6.70;99.90;;;;;;6070506;23;20019;-83
2022/11/27 02:22:30;;;;;;;364.25;232.38;;;6.70;99.90;;;;;;6035017;23;20019;-84
2022/11/27 02:25:07;;;;;;;382.60;240.80;;;6.70;99.90;;;;;;6035808;23;20023;-85
2022/11/27 02:27:52;;;;;;;392.08;243.23;;;6.60;99.90;;;;;;6074262;23;20023;-84
2022/11/27 02:30:21;;;;;;;402.05;247.75;;;6.60;99.90;;;;;;6076765;23;20015;-85
2022/11/27 02:32:56;;;;;;;410.90;256.92;;;6.60;99.90;;;;;;6072435;23;20054;-84
2022/11/27 02:35:29;;;;;;;405.92;252.80;;;6.60;99.90;;;;;;6072622;23;20015;-85
2022/11/27 02:38:00;;;;;;;405.70;257.73;;;6.60;99.90;;;;;;6070616;23;20135;-83
2022/11/27 02:40:31;;;;;;;420.35;266.25;;;6.50;99.90;;;;;;6070328;23;20019;-83
2022/11/27 02:43:06;;;;;;;427.08;269.05;;;6.50;99.90;;;;;;6070189;23;20066;-83
2022/11/27 02:45:38;;;;;;;;;;;6.50;99.90;;;;;;6036454;23;20042;-84
2022/11/27 02:48:08;;;;;;;401.45;260.23;;;6.30;99.90;;;;;;6070684;23;20405;-83
2022/11/27 02:50:38;;;;;;;412.20;267.60;;;6.30;99.90;;;;;;6034756;23;20199;-85
2022/11/27 02:53:09;;;;;;;401.02;252.55;;;6.40;99.90;;;;;;6069396;23;20074;-84
2022/11/27 02:55:40;;;;;;;406.08;250.48;;;6.40;99.90;;;;;;6070055;23;20019;-83
2022/11/27 02:58:13;;;;;;;382.77;241.52;;;6.40;99.90;;;;;;6070611;23;20034;-82
2022/11/27 03:00:43;;;;;;;395.25;251.68;;;6.40;99.90;;;;;;6070211;23;20029;-84
2022/11/27 03:03:13;;;;;;;386.10;243.45;;;6.40;99.90;;;;;;6070050;23;20023;-81
2022/11/27 03:05:44;;;;;;;363.65;226.43;;;6.50;99.90;;;;;;6039026;23;20026;-83
2022/11/27 03:08:20;;;;;;;358.08;224.00;;;6.50;99.90;;;;;;6070102;23;20018;-83
2022/11/27 03:10:54;;;;;;;353.70;220.27;;;6.50;99.90;;;;;;6070089;23;20038;-84
2022/11/27 03:13:22;;;;;;;343.13;216.93;;;6.50;99.90;;;;;;6034443;23;20034;-83
2022/11/27 03:16:00;;;;;;;335.02;206.05;;;6.50;99.90;;;;;;6069760;23;20352;-83
2022/11/27 03:18:36;;;;;;;336.65;213.10;;;6.50;99.90;;;;;;6069899;23;20691;-83
2022/11/27 03:21:09;;;;;;;348.05;221.13;;;6.50;99.90;;;;;;6069410;23;20026;-83
2022/11/27 03:23:37;;;;;;;342.63;216.32;;;6.50;99.90;;;;;;6069987;23;20034;-84
2022/11/27 03:26:05;;;;;;;353.17;223.25;;;6.50;99.90;;;;;;6069959;23;20019;-83
2022/11/27 03:28:34;;;;;;;361.23;228.73;;;6.50;99.90;;;;;;6035007;23;20038;-84
2022/11/27 03:31:03;;;;;;;349.70;216.50;;;6.60;99.90;;;;;;6069388;23;20019;-83
2022/11/27 03:33:32;;;;;;;320.70;200.27;;;6.50;99.90;;;;;;6069633;23;20030;-84
2022/11/27 03:35:59;;;;;;;312.15;196.70;;;6.50;99.90;;;;;;6034664;23;20038;-83
2022/11/27 03:38:27;;;;;;;315.52;193.30;;;6.60;99.90;;;;;;6069584;23;20022;-84
2022/11/27 03:41:02;;;;;;;307.73;193.45;;;6.60;99.90;;;;;;6069663;23;20050;-84
2022/11/27 03:43:37;;;;;;;309.33;194.20;;;6.60;99.90;;;;;;6071280;23;20636;-83
2022/11/27 03:46:11;;;;;;;312.80;192.18;;;6.60;99.90;;;;;;6069811;23;20070;-82
2022/11/27 03:48:43;;;;;;;301.95;190.57;;;6.60;99.90;;;;;;6069752;23;20015;-84
2022/11/27 03:51:17;;;;;;;300.73;185.18;;;6.60;99.90;;;;;;6069137;23;20027;-82
2022/11/27 03:53:52;;;;;;;292.33;173.10;;;6.60;99.90;;;;;;6070115;23;20015;-83
2022/11/27 03:56:31;;;;;;;285.67;176.38;;;6.60;99.90;;;;;;6070338;23;20019;-84
2022/11/27 03:59:03;;;;;;;292.67;180.70;;;6.60;99.90;;;;;;6070007;23;20593;-85
2022/11/27 04:01:32;;;;;;;291.20;181.68;;;6.60;99.90;;;;;;6034180;23;20031;-85
2022/11/27 04:03:59;;;;;;;304.83;180.57;;;6.60;99.90;;;;;;6072297;23;20026;-84
2022/11/27 04:06:27;;;;;;;294.42;180.30;;;6.60;99.90;;;;;;6073579;23;20011;-83
2022/11/27 04:08:55;;;;;;;283.83;177.65;;;6.50;99.90;;;;;;6072926;23;20065;-83
2022/11/27 04:11:22;;;;;;;292.75;179.30;;;6.60;99.90;;;;;;6071260;23;20025;-83
2022/11/27 04:13:51;;;;;;;292.38;180.48;;;6.60;99.90;;;;;;6071363;23;20085;-83
2022/11/27 04:16:18;;;;;;;309.50;188.63;;;6.70;99.90;;;;;;6035819;23;20025;-84
2022/11/27 04:18:47;;;;;;;301.33;185.15;;;6.60;99.90;;;;;;6070625;23;20089;-84
2022/11/27 04:21:15;;;;;;;295.48;184.10;;;6.60;99.90;;;;;;6069815;23;20015;-82
2022/11/27 04:23:43;;;;;;;290.77;182.45;;;6.60;99.90;;;;;;6091965;23;20025;-80
2022/11/27 04:26:10;;;;;;;289.52;182.60;;;6.60;99.90;;;;;;6164801;23;20046;-78
2022/11/27 04:28:37;;;;;;;296.13;191.43;;;6.70;99.90;;;;;;6128966;23;20021;-78
2022/11/27 04:31:05;;;;;;;294.02;183.05;;;6.70;99.90;;;;;;6163921;23;20024;-79
2022/11/27 04:33:32;;;;;;;306.15;194.27;;;6.60;99.90;;;;;;6128493;23;20025;-76
2022/11/27 04:36:01;;;;;;;292.65;184.18;;;6.60;99.90;;;;;;6127695;23;20018;-77
2022/11/27 04:38:28;;;;;;;291.95;183.13;;;6.70;99.90;;;;;;6164323;23;20031;-78
2022/11/27 04:40:56;;;;;;;292.67;189.15;;;6.70;99.90;;;;;;6164138;23;20068;-78
2022/11/27 04:43:24;;;;;;;300.83;194.60;;;6.80;99.90;;;;;;6164359;23;20014;-76
2022/11/27 04:45:51;;;;;;;301.75;195.30;;;6.80;99.90;;;;;;6128334;23;20076;-76
2022/11/27 04:48:18;;;;;;;289.85;179.98;;;6.80;99.90;;;;;;6164271;23;20097;-78
2022/11/27 04:50:46;;;;;;;284.38;177.68;;;6.80;99.90;;;;;;6164278;23;20093;-77
2022/11/27 04:53:14;;;;;;;280.00;173.45;;;6.80;99.90;;;;;;6163765;23;20014;-75
2022/11/27 04:55:42;;;;;;;273.13;168.80;;;6.90;99.90;;;;;;6164134;23;20022;-77
2022/11/27 04:58:09;;;;;;;272.67;169.65;;;6.90;99.90;;;;;;6164207;23;20021;-78
2022/11/27 05:00:36;;;;;;;254.43;160.27;;;6.90;99.90;;;;;;6169161;23;20442;-79
2022/11/27 05:03:03;;;;;;;248.90;156.73;;;7.00;99.90;;;;;;6164836;23;20048;-77
2022/11/27 05:05:31;;;;;;;247.25;158.50;;;7.00;99.90;;;;;;6164115;23;20068;-78
2022/11/27 05:07:58;;;;;;;261.15;165.13;;;7.10;99.90;;;;;;6164606;23;20021;-76
2022/11/27 05:10:27;;;;;;;261.00;163.07;;;7.20;99.90;;;;;;6168837;23;20018;-73
2022/11/27 05:12:54;;;;;;;262.75;167.85;;;7.20;99.90;;;;;;6166949;23;20438;-78
2022/11/27 05:15:21;;;;;;;264.83;169.65;;;7.20;99.90;;;;;;6166028;23;20442;-79
2022/11/27 05:17:48;;;;;;;272.55;171.57;;;7.20;99.90;;;;;;6167659;23;20021;-79
2022/11/27 05:20:16;;;;;;;271.23;170.55;;;7.20;99.90;;;;;;6164575;23;20085;-78
2022/11/27 05:22:44;;;;;;;267.30;169.30;;;7.10;99.90;;;;;;6163602;23;20017;-77
2022/11/27 05:25:12;;;;;;;269.20;169.93;;;7.10;99.90;;;;;;6057724;23;20440;-78
2022/11/27 05:27:40;;;;;;;278.67;174.50;;;7.10;99.90;;;;;;6042963;23;20515;-77
2022/11/27 05:30:09;;;;;;;270.17;169.43;;;7.10;99.90;;;;;;6042798;23;20023;-77
2022/11/27 05:32:36;;;;;;;261.23;164.27;;;7.10;99.90;;;;;;6042367;23;20485;-77
2022/11/27 05:35:03;;;;;;;258.42;163.63;;;7.00;99.90;;;;;;6043071;23;20019;-76
2022/11/27 05:37:31;;;;;;;261.05;167.05;;;7.00;99.90;;;;;;6042880;23;20046;-76
2022/11/27 05:39:58;;;;;;;269.98;168.27;;;7.10;99.90;;;;;;6007796;23;20031;-76
2022/11/27 05:42:25;;;;;;;274.40;173.35;;;7.10;99.90;;;;;;6042743;23;20016;-79
2022/11/27 05:44:54;;;;;;;274.75;177.25;;;7.10;99.90;;;;;;6008267;23;20443;-78
2022/11/27 05:47:21;;;;;;;282.52;178.15;;;7.10;99.90;;;;;;6043155;23;20038;-77
2022/11/27 05:49:49;;;;;;;284.27;177.88;;;7.10;99.90;;;;;;6042672;23;20388;-76
2022/11/27 05:52:16;;;;;;;277.23;175.88;;;7.10;99.90;;;;;;6041983;23;20023;-78
2022/11/27 05:54:43;;;;;;;283.20;179.95;;;7.10;99.90;;;;;;6042710;23;20392;-76
2022/11/27 05:57:11;;;;;;;279.42;173.27;;;7.10;99.90;;;;;;6042956;23;20475;-78
2022/11/27 05:59:38;;;;;;;280.38;176.57;;;7.00;99.90;;;;;;6042845;23;20054;-78
2022/11/27 06:02:07;;;;;;;281.20;177.07;;;7.00;99.90;;;;;;6042497;23;20016;-78
2022/11/27 06:04:34;;;;;;;275.85;173.95;;;7.00;99.90;;;;;;6042804;23;20019;-77
2022/11/27 06:07:01;;;;;;;267.77;170.55;;;7.00;99.90;;;;;;6051934;23;20023;-79
2022/11/27 06:09:29;;;;;;;269.95;170.60;;;7.10;99.90;;;;;;6062832;23;20023;-75
2022/11/27 06:11:56;;;;;;;278.27;173.63;;;7.10;99.90;;;;;;6068459;23;20011;-76
2022/11/27 06:14:23;;;;;;;270.00;172.05;;;7.10;99.90;;;;;;6067054;23;20014;-74
2022/11/27 06:16:50;;;;;;;289.05;179.02;;;7.00;99.90;;;;;;6036236;23;20008;-77
2022/11/27 06:19:19;;;;;;;285.55;177.70;;;7.00;99.90;;;;;;6066933;23;20019;-75
2022/11/27 06:21:46;;;;;;;277.90;176.98;;;7.00;99.90;;;;;;6043242;23;20082;-77
2022/11/27 06:24:14;;;;;;;272.63;171.43;;;7.00;99.90;;;;;;6043376;23;20015;-78
2022/11/27 06:26:41;;;;;;;277.38;174.02;;;7.00;99.90;;;;;;6042958;23;20784;-76
2022/11/27 06:29:09;;;;;;;279.65;180.20;;;7.00;99.90;;;;;;6045325;23;20065;-75
2022/11/27 06:31:37;;;;;;;278.73;177.88;;;7.00;99.90;;;;;;6049179;23;20053;-76
2022/11/27 06:34:05;;;;;;;274.70;173.52;;;7.00;99.90;;;;;;6010819;23;20026;-77
2022/11/27 06:36:36;;;;;;;273.00;176.40;;;7.00;99.90;;;;;;6041951;23;20046;-78
2022/11/27 06:39:05;;;;;;;303.30;188.48;;;7.00;99.90;;;;;;6007651;23;20320;-77
2022/11/27 06:41:33;;;;;;;285.17;186.32;;;7.00;99.90;;;;;;6041626;23;20031;-78
2022/11/27 06:44:00;;;;;;;294.38;188.40;;;6.90;99.90;;;;;;6050941;23;20019;-75
2022/11/27 06:46:28;;;;;;;298.58;198.60;;;6.90;99.90;;;;;;6059424;23;20019;-77
2022/11/27 06:48:57;;;;;;;302.02;196.55;;;6.90;99.90;;;;;;6055657;23;20023;-77
2022/11/27 06:51:27;;;;;;;318.88;204.70;;;6.90;99.90;;;;;;6057182;23;20058;-76
2022/11/27 06:53:56;;;;;;;309.85;201.35;;;6.90;99.90;;;;;;6021432;23;20071;-79
2022/11/27 06:56:25;;;;;;;298.83;200.05;;;6.90;99.90;;;;;;6033044;23;20087;-78
2022/11/27 06:58:54;;;;;;;310.30;204.60;;;6.90;99.90;;;;;;6034039;23;20483;-76
2022/11/27 07:01:22;;;;;;;317.08;210.80;;;6.90;99.90;;;;;;6042899;23;20047;-77
2022/11/27 07:03:50;;;;;;;307.75;202.18;;;7.00;99.90;;;;;;6042911;23;20026;-78
2022/11/27 07:06:20;;;;;;;302.70;198.80;;;7.00;99.90;;;;;;6042353;23;20023;-76
2022/11/27 07:08:48;;;;;;;314.27;202.60;;;7.00;99.90;;;;;;6042835;23;20027;-77
2022/11/27 07:11:21;;;;;;;306.58;198.55;;;7.00;99.90;;;;;;6041786;23;20019;-77
2022/11/27 07:13:49;;;;;;;325.95;212.32;;;7.10;99.90;;;;;;6048550;23;20086;-75
2022/11/27 07:16:18;;;;;;;307.23;208.18;;;7.10;99.90;;;;;;6044890;23;20019;-77
2022/11/27 07:18:48;;;;;;;306.63;199.38;;;7.10;99.90;;;;;;6041816;23;20019;-78
2022/11/27 07:21:16;;;;;;;296.63;195.23;;;7.10;99.90;;;;;;6041232;23;20027;-76
2022/11/27 07:23:44;;;;;;;299.67;193.60;;;7.20;99.90;;;;;;6072879;23;20048;-77
2022/11/27 07:26:13;;;;;;;284.35;190.20;;;7.20;99.90;;;;;;6162162;23;20037;-77
2022/11/27 07:28:43;;;;;;;281.38;184.63;;;7.30;99.90;;;;;;6162883;23;20017;-77
2022/11/27 07:31:11;;;;;;;280.75;182.73;;;7.40;99.90;;;;;;6161524;23;20595;-74
2022/11/27 07:33:38;;;;;;;277.67;183.13;;;7.40;99.90;;;;;;6150020;23;20028;-78
2022/11/27 07:36:08;;;;;;;281.75;184.20;;;7.50;99.90;;;;;;6126417;23;20029;-77
2022/11/27 07:38:35;;;;;;;301.48;193.93;;;7.50;99.90;;;;;;6162635;23;20025;-78
2022/11/27 07:41:03;;;;;;;282.35;188.93;;;7.60;99.90;;;;;;6126345;23;20342;-74
2022/11/27 07:43:32;;;;;;;296.33;194.05;;;7.60;99.90;;;;;;6162862;23;20033;-76
2022/11/27 07:46:04;;;;;;;289.92;185.90;;;7.60;99.90;;;;;;6162376;23;20072;-79
2022/11/27 07:48:31;;;;;;;288.65;192.65;;;7.60;99.90;;;;;;6162286;23;20014;-78
2022/11/27 07:50:58;;;;;;;289.65;192.50;;;7.50;99.90;;;;;;6164653;23;20501;-76
2022/11/27 07:53:26;;;;;;;273.67;179.43;;;7.60;99.90;;;;;;6165728;23;20083;-78
2022/11/27 07:55:53;;;;;;;288.40;194.27;;;7.50;99.90;;;;;;6162132;23;20060;-77
2022/11/27 07:58:20;;;;;;;299.67;201.75;;;7.30;99.90;;;;;;6162053;23;20521;-77
2022/11/27 08:00:48;;;;;;;319.67;208.85;;;7.30;99.90;;;;;;6162690;23;20021;-79
2022/11/27 08:03:17;;;;;;;323.10;216.45;;;7.40;99.90;;;;;;6161657;23;20052;-80
2022/11/27 08:05:44;;;;;;;323.90;219.52;;;7.50;99.90;;;;;;6162378;23;20017;-78
2022/11/27 08:08:11;;;;;;;317.60;217.68;;;7.50;99.90;;;;;;6162549;23;20687;-77
2022/11/27 08:10:39;;;;;;;319.73;215.68;;;7.60;99.90;;;;;;6162184;23;20017;-78
2022/11/27 08:13:07;;;;;;;309.65;206.43;;;7.70;99.90;;;;;;6161304;23;20018;-76
2022/11/27 08:15:34;;;;;;;290.63;200.82;;;7.80;99.90;;;;;;6162219;23;20021;-79
2022/11/27 08:18:02;;;;;;;288.25;194.60;;;7.90;99.90;;;;;;6162097;23;20047;-78
2022/11/27 08:20:33;;;;;;;291.88;195.88;;;7.90;99.90;;;;;;6162578;23;20070;-78
2022/11/27 08:23:00;;;;;;;297.65;196.85;;;7.90;99.90;;;;;;6161666;23;20021;-78
2022/11/27 08:25:27;;;;;;;274.52;188.02;;;7.90;99.90;;;;;;6019321;23;20044;-77
2022/11/27 08:27:54;;;;;;;289.45;196.93;;;7.90;99.90;;;;;;6006940;23;20025;-77
2022/11/27 08:30:22;;;;;;;293.50;198.65;;;7.90;99.90;;;;;;6008567;23;20045;-77
2022/11/27 08:32:50;;;;;;;309.15;212.57;;;7.90;99.90;;;;;;6040588;23;20089;-75
2022/11/27 08:35:17;;;;;;;292.67;200.25;;;8.00;99.90;;;;;;6041168;23;20015;-77
2022/11/27 08:37:46;;;;;;;287.15;194.38;;;8.00;99.90;;;;;;6042047;23;20074;-75
2022/11/27 08:40:13;;;;;;;284.58;190.65;;;8.10;99.90;;;;;;6041933;23;20047;-75
2022/11/27 08:42:41;;;;;;;282.10;191.13;;;8.30;99.90;;;;;;6042178;23;20436;-76
2022/11/27 08:45:09;;;;;;;278.67;188.50;;;8.40;99.90;;;;;;6046204;23;20019;-76
2022/11/27 08:47:36;;;;;;;287.48;185.45;;;8.30;99.90;;;;;;6045047;23;20015;-76
2022/11/27 08:50:04;;;;;;;270.13;180.60;;;8.30;99.90;;;;;;6018440;23;20023;-74
2022/11/27 08:52:32;;;;;;;272.40;183.07;;;8.40;99.90;;;;;;6019710;23;20019;-77
2022/11/27 08:55:01;;;;;;;285.40;191.57;;;8.50;99.90;;;;;;6048742;23;20019;-77
2022/11/27 08:57:28;;;;;;;272.25;180.40;;;8.50;99.90;;;;;;6042351;23;20019;-77
2022/11/27 08:59:55;;;;;;;256.85;170.40;;;8.60;99.90;;;;;;6042492;23;20019;-75
2022/11/27 09:02:22;;;;;;;256.75;169.15;;;8.80;99.90;;;;;;6042102;23;20066;-78
2022/11/27 09:04:50;;;;;;;253.98;168.07;;;8.80;99.90;;;;;;6042677;23;20098;-76
2022/11/27 09:07:17;;;;;;;249.65;164.45;;;8.70;99.90;;;;;;6042809;23;20087;-77
2022/11/27 09:09:46;;;;;;;252.30;168.45;;;8.80;99.90;;;;;;6009199;23;20027;-77
2022/11/27 09:12:15;;;;;;;248.40;167.25;;;9.00;99.90;;;;;;6043644;23;20019;-77
2022/11/27 09:14:42;;;;;;;261.55;174.88;;;9.10;99.90;;;;;;6043334;23;20024;-77
2022/11/27 09:17:11;;;;;;;268.23;177.18;;;9.20;99.90;;;;;;6043977;23;20075;-77
2022/11/27 09:19:38;;;;;;;265.30;180.32;;;9.20;99.90;;;;;;6042365;23;20023;-76
2022/11/27 09:22:06;;;;;;;270.58;179.25;;;9.30;99.90;;;;;;6043314;23;20035;-78
2022/11/27 09:24:33;;;;;;;272.10;180.68;;;9.40;99.90;;;;;;6045968;23;20031;-77
2022/11/27 09:27:06;;;;;;;261.17;179.13;;;9.30;99.90;;;;;;6054371;23;20022;-76
2022/11/27 09:29:36;;;;;;;264.45;179.10;;;9.20;99.90;;;;;;6054389;23;20475;-76
2022/11/27 09:32:03;;;;;;;258.63;173.23;;;9.30;99.90;;;;;;6066442;23;19999;-74
2022/11/27 09:34:30;;;;;;;255.40;168.98;;;9.40;99.90;;;;;;6065918;23;20015;-79
2022/11/27 09:36:58;;;;;;;227.32;151.50;;;9.60;99.90;;;;;;6045884;23;20025;-76
2022/11/27 09:39:29;;;;;;;220.63;143.77;;;9.90;99.90;;;;;;6043371;23;20030;-76
2022/11/27 09:42:00;;;;;;;215.00;141.65;;;10.10;99.90;;;;;;6050190;23;20457;-74
2022/11/27 09:44:39;;;;;;;207.50;137.70;;;10.20;99.90;;;;;;6046754;23;20090;-75
2022/11/27 09:47:15;;;;;;;207.45;133.23;;;10.50;99.90;;;;;;6043854;23;20035;-77
2022/11/27 09:49:47;;;;;;;;;;;10.70;99.90;;;;;;6044708;23;20105;-78
2022/11/27 09:52:23;;;;;;;176.88;115.00;;;10.70;99.90;;;;;;6043221;23;19921;-76
2022/11/27 09:55:00;;;;;;;170.68;111.70;;;10.40;99.90;;;;;;6044667;23;20074;-76
2022/11/27 09:57:31;;;;;;;158.55;107.28;;;10.30;99.90;;;;;;6044698;23;20019;-77
2022/11/27 10:00:03;;;;;;;153.77;103.85;;;10.00;99.90;;;;;;6044663;23;20038;-77
2022/11/27 10:02:34;;;;;;;153.00;102.68;;;10.10;99.90;;;;;;6054589;23;20027;-73
2022/11/27 10:05:10;;;;;;;134.38;87.38;;;10.10;99.90;;;;;;6065353;23;20019;-74
2022/11/27 10:07:50;;;;;;;123.95;85.55;;;10.20;99.90;;;;;;6055102;23;20021;-75
2022/11/27 10:10:30;;;;;;;107.65;74.47;;;10.20;99.90;;;;;;6054499;23;20015;-74
2022/11/27 10:13:06;;;;;;;99.18;68.05;;;10.20;99.90;;;;;;6029734;23;20023;-75
2022/11/27 10:15:42;;;;;;;101.20;69.45;;;10.30;99.90;;;;;;6062357;23;20011;-72
2022/11/27 10:18:11;;;;;;;;;;;10.30;99.90;;;;;;6061864;23;20008;-78
2022/11/27 10:20:45;;;;;;;104.65;71.70;;;10.40;99.90;;;;;;6065616;23;19936;-76
2022/11/27 10:23:22;;;;;;;109.75;75.05;;;10.40;99.90;;;;;;6061430;23;20030;-75
2022/11/27 10:25:50;;;;;;;100.65;70.13;;;10.40;99.90;;;;;;6170010;23;20611;-74
2022/11/27 10:28:28;;;;;;;103.18;70.28;;;10.40;99.90;;;;;;6173583;23;20025;-76
2022/11/27 10:31:03;;;;;;;108.43;74.32;;;10.40;99.90;;;;;;6130634;23;20021;-76
2022/11/27 10:33:38;;;;;;;102.93;73.30;;;10.30;99.90;;;;;;6129616;23;20014;-75
2022/11/27 10:36:14;;;;;;;101.03;71.57;;;10.20;99.90;;;;;;6166009;23;20069;-76
2022/11/27 10:38:43;;;;;;;96.05;68.30;;;10.20;99.90;;;;;;6165064;23;20024;-76
2022/11/27 10:41:17;;;;;;;97.65;67.88;;;10.30;99.90;;;;;;6151483;23;20029;-76
2022/11/27 10:43:47;;;;;;;104.72;68.57;;;10.40;99.90;;;;;;6150849;23;20072;-78
2022/11/27 10:46:21;;;;;;;96.00;66.00;;;10.20;99.90;;;;;;6161979;23;20423;-76
2022/11/27 10:48:48;;;;;;;93.05;60.58;;;10.20;99.90;;;;;;6161780;23;20069;-76
2022/11/27 10:51:19;;;;;;;87.45;61.58;;;10.30;99.90;;;;;;6125805;23;20470;-80
2022/11/27 10:53:50;;;;;;;88.43;59.97;;;10.30;99.90;;;;;;6162454;23;20017;-79
2022/11/27 10:56:46;;;;;;;93.90;61.05;;;10.40;99.90;;;;;;6162135;23;20525;-78
2022/11/27 10:59:19;;;;;;;90.72;63.10;;;10.60;99.90;;;;;;6134499;23;20025;-77
2022/11/27 11:01:49;;;;;;;87.75;60.38;;;10.70;99.90;;;;;;6164400;23;20037;-77
2022/11/27 11:04:21;;;;;;;84.28;58.97;;;10.80;99.90;;;;;;6183251;23;20109;-77
2022/11/27 11:06:49;;;;;;;88.93;57.53;;;11.10;99.90;;;;;;6181406;23;20065;-77
2022/11/27 11:09:20;;;;;;;84.38;59.05;;;11.20;99.90;;;;;;6165583;23;20029;-77
2022/11/27 11:11:48;;;;;;;84.15;58.10;;;11.40;99.90;;;;;;6161369;23;20020;-78
2022/11/27 11:14:21;;;;;;;78.68;54.83;;;11.60;99.90;;;;;;6162349;23;20021;-77
2022/11/27 11:16:51;;;;;;;80.88;57.65;;;11.60;99.90;;;;;;6162620;23;20017;-77
2022/11/27 11:19:24;;;;;;;84.20;60.20;;;11.40;99.90;;;;;;6162153;23;20013;-79
2022/11/27 11:21:52;;;;;;;84.45;59.17;;;11.10;99.90;;;;;;6162660;23;20021;-77
2022/11/27 11:24:25;;;;;;;78.55;57.88;;;10.90;99.90;;;;;;6162935;23;20065;-78
2022/11/27 11:26:56;;;;;;;77.88;55.85;;;10.70;99.90;;;;;;6161941;23;20116;-79
2022/11/27 11:29:31;;;;;;;85.55;57.40;;;10.60;99.90;;;;;;6161907;23;20018;-78
2022/11/27 11:32:06;;;;;;;75.43;53.17;;;10.40;99.90;;;;;;6160903;23;20671;-79
2022/11/27 11:34:34;;;;;;;76.30;53.53;;;10.20;99.90;;;;;;6162111;23;20029;-77
2022/11/27 11:37:04;;;;;;;75.55;51.95;;;10.20;99.90;;;;;;6161651;23;20013;-77
2022/11/27 11:39:33;;;;;;;75.65;51.65;;;10.00;99.90;;;;;;6162070;23;20013;-78
2022/11/27 11:42:01;;;;;;;75.03;52.10;;;10.00;99.90;;;;;;6069388;23;20019;-78
2022/11/27 11:44:33;;;;;;;74.72;52.58;;;10.00;99.90;;;;;;6069788;23;20106;-78
2022/11/27 11:47:01;;;;;;;89.80;59.80;;;10.00;99.90;;;;;;6069731;23;20015;-78
2022/11/27 11:49:31;;;;;;;93.22;62.55;;;10.10;99.90;;;;;;6069837;23;20015;-76
2022/11/27 11:52:20;;;;;;;96.97;66.60;;;10.20;99.90;;;;;;6068807;23;20392;-77
2022/11/27 11:55:00;;;;;;;93.78;64.85;;;10.30;99.90;;;;;;6069665;23;20029;-77
2022/11/27 11:58:11;;;;;;;90.07;61.22;;;10.40;99.90;;;;;;6070695;23;20018;-77
2022/11/27 12:00:45;;;;;;;87.05;60.50;;;10.50;99.90;;;;;;6081030;23;20094;-78
2022/11/27 12:03:37;;;;;;;90.85;60.20;;;10.70;99.90;;;;;;6073000;23;20024;-78
2022/11/27 12:06:25;;;;;;;83.38;56.92;;;10.70;99.90;;;;;;6070312;23;20082;-79
2022/11/27 12:09:03;;;;;;;82.80;57.08;;;10.40;99.90;;;;;;6070671;23;20019;-75
2022/11/27 12:11:35;;;;;;;79.88;55.85;;;10.40;99.90;;;;;;6068988;23;20074;-76
2022/11/27 12:14:13;;;;;;;79.22;54.13;;;10.20;99.90;;;;;;6069929;23;20388;-77
2022/11/27 12:16:49;;;;;;;87.93;58.40;;;10.30;99.90;;;;;;6069761;23;20022;-76
2022/11/27 12:19:47;;;;;;;84.70;57.75;;;10.50;99.90;;;;;;6069789;23;20078;-77
2022/11/27 12:22:27;;;;;;;88.68;59.47;;;10.50;99.90;;;;;;6093564;23;20031;-78
2022/11/27 12:25:09;;;;;;;79.85;56.28;;;10.60;99.90;;;;;;6038011;23;20343;-78
2022/11/27 12:27:55;;;;;;;80.30;51.72;;;10.70;99.90;;;;;;6082957;23;20018;-78
2022/11/27 12:30:26;;;;;;;72.47;49.45;;;10.90;99.90;;;;;;6086491;23;20019;-77
2022/11/27 12:33:19;;;;;;;75.38;49.88;;;10.90;99.90;;;;;;6070629;23;20015;-77
2022/11/27 12:35:59;;;;;;;71.40;50.70;;;10.60;99.90;;;;;;6071558;23;20019;-78